createdAt,value
2017-09-08T00:01:10.833Z,8.60
2017-09-08T00:03:38.374Z,8.93
2017-09-08T00:06:05.897Z,10.13
2017-09-08T00:08:33.342Z,9.97
2017-09-08T00:11:00.760Z,8.47
2017-09-08T00:13:28.948Z,9.00
2017-09-08T00:15:56.404Z,8.30
2017-09-08T00:18:24.629Z,8.63
2017-09-08T00:20:52.101Z,8.83
2017-09-08T00:23:19.540Z,9.30
2017-09-08T00:25:46.995Z,9.10
2017-09-08T00:28:14.445Z,8.33
2017-09-08T00:30:41.939Z,8.23
2017-09-08T00:33:09.370Z,8.13
2017-09-08T00:35:36.801Z,9.13
2017-09-08T00:38:04.238Z,9.80
2017-09-08T00:40:32.433Z,9.17
2017-09-08T00:42:59.864Z,8.50
2017-09-08T00:45:27.305Z,8.60
2017-09-08T00:47:55.496Z,8.23
2017-09-08T00:50:22.931Z,9.40
2017-09-08T00:52:50.342Z,8.87
2017-09-08T00:55:17.820Z,8.13
2017-09-08T00:57:45.256Z,10.07
2017-09-08T01:00:12.712Z,8.33
2017-09-08T01:02:40.190Z,8.03
2017-09-08T01:05:07.720Z,9.07
2017-09-08T01:07:35.181Z,8.27
2017-09-08T01:10:02.609Z,7.97
2017-09-08T01:12:30.197Z,8.73
2017-09-08T01:14:57.654Z,8.47
2017-09-08T01:17:25.097Z,8.30
2017-09-08T01:19:52.564Z,8.23
2017-09-08T01:22:19.988Z,8.37
2017-09-08T01:24:47.433Z,8.63
2017-09-08T01:27:15.657Z,9.10
2017-09-08T01:29:43.099Z,7.47
2017-09-08T01:32:10.526Z,8.30
2017-09-08T01:34:38.124Z,7.80
2017-09-08T01:37:05.585Z,7.47
2017-09-08T01:39:33.045Z,7.60
2017-09-08T01:42:00.464Z,8.17
2017-09-08T01:44:27.907Z,8.10
2017-09-08T01:46:56.133Z,7.20
2017-09-08T01:49:23.576Z,8.10
2017-09-08T01:51:51.033Z,7.80
2017-09-08T01:54:18.520Z,8.83
2017-09-08T01:56:46.066Z,8.67
2017-09-08T01:59:13.505Z,8.37
2017-09-08T02:01:40.979Z,7.60
2017-09-08T02:04:08.428Z,8.20
2017-09-08T02:06:35.860Z,8.30
2017-09-08T02:09:03.336Z,7.43
2017-09-08T02:11:30.764Z,8.00
2017-09-08T02:13:58.264Z,8.27
2017-09-08T02:16:25.710Z,8.27
2017-09-08T02:18:53.141Z,7.87
2017-09-08T02:21:20.561Z,7.43
2017-09-08T02:23:48.769Z,8.30
2017-09-08T02:26:16.256Z,7.90
2017-09-08T02:28:43.698Z,7.77
2017-09-08T02:31:11.137Z,9.37
2017-09-08T02:33:38.563Z,8.20
2017-09-08T02:36:06.772Z,8.30
2017-09-08T02:38:34.253Z,7.67
2017-09-08T02:41:01.708Z,7.83
2017-09-08T02:43:29.171Z,8.60
2017-09-08T02:45:56.595Z,8.20
2017-09-08T02:48:24.073Z,8.50
2017-09-08T02:50:51.509Z,8.47
2017-09-08T02:53:18.937Z,8.40
2017-09-08T02:55:46.369Z,8.43
2017-09-08T02:58:14.570Z,8.80
2017-09-08T03:00:42.001Z,7.93
2017-09-08T03:03:09.433Z,8.20
2017-09-08T03:05:37.708Z,8.00
2017-09-08T03:08:05.157Z,8.63
2017-09-08T03:10:32.568Z,9.87
2017-09-08T03:13:00.024Z,8.80
2017-09-08T03:15:27.432Z,9.87
2017-09-08T03:17:54.884Z,8.90
2017-09-08T03:20:22.374Z,8.70
2017-09-08T03:22:49.830Z,9.00
2017-09-08T03:25:17.269Z,8.47
2017-09-08T03:27:44.815Z,8.57
2017-09-08T03:30:12.273Z,8.70
2017-09-08T03:32:39.730Z,9.00
2017-09-08T03:35:07.183Z,9.20
2017-09-08T03:37:34.627Z,9.13
2017-09-08T03:40:02.834Z,10.30
2017-09-08T03:42:30.301Z,9.47
2017-09-08T03:44:58.537Z,9.10
2017-09-08T03:47:25.965Z,10.03
2017-09-08T03:49:53.423Z,10.53
2017-09-08T03:52:20.883Z,9.10
2017-09-08T03:54:48.321Z,10.40
2017-09-08T03:57:15.762Z,9.70
2017-09-08T03:59:43.233Z,9.77
2017-09-08T04:02:10.772Z,10.00
2017-09-08T04:04:38.228Z,9.20
2017-09-08T04:07:05.682Z,9.50
2017-09-08T04:09:33.145Z,9.70
2017-09-08T04:12:00.600Z,9.33
2017-09-08T04:14:28.036Z,9.17
2017-09-08T04:16:55.493Z,9.40
2017-09-08T04:19:22.949Z,10.20
2017-09-08T04:21:50.408Z,10.20
2017-09-08T04:24:17.877Z,10.77
2017-09-08T04:26:45.311Z,9.87
2017-09-08T04:29:13.518Z,10.20
2017-09-08T04:31:40.952Z,10.47
2017-09-08T04:34:08.411Z,9.80
2017-09-08T04:36:35.836Z,9.73
2017-09-08T04:39:03.273Z,9.90
2017-09-08T04:41:31.528Z,10.07
2017-09-08T04:43:58.976Z,10.30
2017-09-08T04:46:26.418Z,10.10
2017-09-08T04:48:53.860Z,9.80
2017-09-08T04:51:21.271Z,8.80
2017-09-08T04:53:49.500Z,9.20
2017-09-08T04:56:16.928Z,8.83
2017-09-08T04:58:44.352Z,9.90
2017-09-08T05:01:12.584Z,9.27
2017-09-08T05:03:40.100Z,9.50
2017-09-08T05:06:08.282Z,8.50
2017-09-08T05:08:35.723Z,8.87
2017-09-08T05:11:03.961Z,9.23
2017-09-08T05:13:31.511Z,9.80
2017-09-08T05:15:58.960Z,9.23
2017-09-08T05:18:26.429Z,8.40
2017-09-08T05:20:53.885Z,9.27
2017-09-08T05:23:21.352Z,9.77
2017-09-08T05:25:48.792Z,9.23
2017-09-08T05:28:16.261Z,9.03
2017-09-08T05:30:43.830Z,8.77
2017-09-08T05:33:11.367Z,8.57
2017-09-08T05:35:38.834Z,8.17
2017-09-08T05:38:06.284Z,8.10
2017-09-08T05:40:33.708Z,8.73
2017-09-08T05:43:01.137Z,9.40
2017-09-08T05:45:29.372Z,7.67
2017-09-08T05:47:56.828Z,8.70
2017-09-08T05:50:24.236Z,8.53
2017-09-08T05:52:51.656Z,8.73
2017-09-08T05:55:19.101Z,8.10
2017-09-08T05:57:48.095Z,8.30
2017-09-08T06:00:15.643Z,8.17
2017-09-08T06:02:43.066Z,8.70
2017-09-08T06:05:10.514Z,8.60
2017-09-08T06:07:38.692Z,8.20
2017-09-08T06:10:06.120Z,9.60
2017-09-08T06:12:34.316Z,8.73
2017-09-08T06:15:01.802Z,8.20
2017-09-08T06:17:29.224Z,9.30
2017-09-08T06:19:56.669Z,8.10
2017-09-08T06:22:24.841Z,7.77
2017-09-08T06:24:52.297Z,7.87
2017-09-08T06:27:19.810Z,7.97
2017-09-08T06:29:47.238Z,8.37
2017-09-08T06:32:14.724Z,8.17
2017-09-08T06:34:43.225Z,7.87
2017-09-08T06:37:11.408Z,8.33
2017-09-08T06:39:39.652Z,8.20
2017-09-08T06:42:07.193Z,7.60
2017-09-08T06:44:34.636Z,7.50
2017-09-08T06:47:02.100Z,7.70
2017-09-08T06:49:29.512Z,7.33
2017-09-08T06:51:57.777Z,7.97
2017-09-08T06:54:25.282Z,8.10
2017-09-08T06:56:52.742Z,7.80
2017-09-08T06:59:20.199Z,8.00
2017-09-08T07:01:47.629Z,7.90
2017-09-08T07:04:15.078Z,8.80
2017-09-08T07:06:43.317Z,7.70
2017-09-08T07:09:11.561Z,7.63
2017-09-08T07:11:38.993Z,6.93
2017-09-08T07:14:07.188Z,7.73
2017-09-08T07:16:35.379Z,8.40
2017-09-08T07:19:02.804Z,7.37
2017-09-08T07:21:30.287Z,7.30
2017-09-08T07:23:57.748Z,7.63
2017-09-08T07:26:25.173Z,8.47
2017-09-08T07:28:53.369Z,7.70
2017-09-08T07:31:20.840Z,7.90
2017-09-08T07:33:48.245Z,7.37
2017-09-08T07:36:15.691Z,7.80
2017-09-08T07:38:43.169Z,6.87
2017-09-08T07:41:10.618Z,7.60
2017-09-08T07:43:38.049Z,7.30
2017-09-08T07:46:05.528Z,7.03
2017-09-08T07:48:32.985Z,8.80
2017-09-08T07:51:00.439Z,8.60
2017-09-08T07:53:27.886Z,7.47
2017-09-08T07:55:55.397Z,6.97
2017-09-08T07:58:23.752Z,7.00
2017-09-08T08:00:51.191Z,6.73
2017-09-08T08:03:18.642Z,7.27
2017-09-08T08:05:46.112Z,7.77
2017-09-08T08:08:13.557Z,6.50
2017-09-08T08:10:41.008Z,7.40
2017-09-08T08:13:08.440Z,6.80
2017-09-08T08:15:35.874Z,6.60
2017-09-08T08:18:04.098Z,7.03
2017-09-08T08:20:31.523Z,5.57
2017-09-08T08:22:59.017Z,7.67
2017-09-08T08:25:26.445Z,6.10
2017-09-08T08:27:53.944Z,7.00
2017-09-08T08:30:21.370Z,6.00
2017-09-08T08:32:48.795Z,5.97
2017-09-08T08:35:16.310Z,6.93
2017-09-08T08:37:43.748Z,7.37
2017-09-08T08:40:11.178Z,7.20
2017-09-08T08:42:38.659Z,7.03
2017-09-08T08:45:06.090Z,6.53
2017-09-08T08:47:33.599Z,8.47
2017-09-08T08:50:01.012Z,5.80
2017-09-08T08:52:28.457Z,6.73
2017-09-08T08:54:55.915Z,7.33
2017-09-08T08:57:23.323Z,6.10
2017-09-08T08:59:50.857Z,6.33
2017-09-08T09:02:18.304Z,6.57
2017-09-08T09:04:45.743Z,7.47
2017-09-08T09:07:13.215Z,5.97
2017-09-08T09:09:40.639Z,7.40
2017-09-08T09:12:08.842Z,5.83
2017-09-08T09:14:36.334Z,6.13
2017-09-08T09:17:03.764Z,6.40
2017-09-08T09:19:31.203Z,5.03
2017-09-08T09:21:58.637Z,5.40
2017-09-08T09:24:26.832Z,5.40
2017-09-08T09:26:54.273Z,5.53
2017-09-08T09:29:21.722Z,5.90
2017-09-08T09:31:49.148Z,5.50
2017-09-08T09:34:17.361Z,5.80
2017-09-08T09:36:44.809Z,6.57
2017-09-08T09:39:12.308Z,5.40
2017-09-08T09:41:39.730Z,6.13
2017-09-08T09:44:07.163Z,6.83
2017-09-08T09:46:34.610Z,6.30
2017-09-08T09:49:02.041Z,4.83
2017-09-08T09:51:29.474Z,5.57
2017-09-08T09:53:57.663Z,4.90
2017-09-08T09:56:25.154Z,5.23
2017-09-08T09:58:52.585Z,6.47
2017-09-08T10:01:20.016Z,5.20
2017-09-08T10:03:48.209Z,6.63
2017-09-08T10:06:15.648Z,5.50
2017-09-08T10:08:43.876Z,5.70
2017-09-08T10:11:11.288Z,4.87
2017-09-08T10:13:38.719Z,5.67
2017-09-08T10:16:06.221Z,6.20
2017-09-08T10:18:33.660Z,5.13
2017-09-08T10:21:01.088Z,4.90
2017-09-08T10:23:28.588Z,4.63
2017-09-08T10:25:56.031Z,4.90
2017-09-08T10:28:23.472Z,4.60
2017-09-08T10:30:51.659Z,5.03
2017-09-08T10:33:19.086Z,4.93
2017-09-08T10:35:47.292Z,5.37
2017-09-08T10:38:14.742Z,4.53
2017-09-08T10:40:42.164Z,3.97
2017-09-08T10:43:10.377Z,4.97
2017-09-08T10:45:37.816Z,4.50
2017-09-08T10:48:05.258Z,4.63
2017-09-08T10:50:33.452Z,4.63
2017-09-08T10:53:00.915Z,5.30
2017-09-08T10:55:28.366Z,3.50
2017-09-08T10:57:55.940Z,4.67
2017-09-08T11:00:23.409Z,4.67
2017-09-08T11:02:50.868Z,4.03
2017-09-08T11:05:18.310Z,3.47
2017-09-08T11:07:45.752Z,4.40
2017-09-08T11:10:13.257Z,4.00
2017-09-08T11:12:40.692Z,3.77
2017-09-08T11:15:08.136Z,3.97
2017-09-08T11:17:35.578Z,4.90
2017-09-08T11:20:03.030Z,3.80
2017-09-08T11:22:30.605Z,4.30
2017-09-08T11:24:58.047Z,3.60
2017-09-08T11:27:25.504Z,3.70
2017-09-08T11:29:52.946Z,3.77
2017-09-08T11:35:35.370Z,4.17
2017-09-08T11:38:03.576Z,4.00
2017-09-08T11:40:31.004Z,3.73
2017-09-08T11:42:58.508Z,4.00
2017-09-08T11:45:25.939Z,3.63
2017-09-08T11:47:53.393Z,3.87
2017-09-08T11:50:20.821Z,3.73
2017-09-08T11:52:49.025Z,3.73
2017-09-08T11:55:16.485Z,3.80
2017-09-08T11:57:43.922Z,3.93
2017-09-08T12:00:11.397Z,4.33
2017-09-08T12:02:38.877Z,4.23
2017-09-08T12:05:06.331Z,3.77
2017-09-08T12:07:33.768Z,4.47
2017-09-08T12:10:01.201Z,3.70
2017-09-08T12:12:28.680Z,4.07
2017-09-08T12:14:56.133Z,3.77
2017-09-08T12:17:23.570Z,3.70
2017-09-08T12:19:51.865Z,4.30
2017-09-08T12:22:19.328Z,4.47
2017-09-08T12:24:46.796Z,4.40
2017-09-08T12:27:14.239Z,4.90
2017-09-08T12:29:41.801Z,4.43
2017-09-08T12:32:09.336Z,4.40
2017-09-08T12:34:36.768Z,4.60
2017-09-08T12:37:04.987Z,4.30
2017-09-08T12:39:32.425Z,4.80
2017-09-08T12:41:59.860Z,4.53
2017-09-08T12:44:28.184Z,4.80
2017-09-08T12:46:55.642Z,4.37
2017-09-08T12:49:23.092Z,4.63
2017-09-08T12:51:50.529Z,5.10
2017-09-08T12:54:18.002Z,4.93
2017-09-08T12:56:45.438Z,4.83
2017-09-08T12:59:12.861Z,4.70
2017-09-08T13:01:41.044Z,4.90
2017-09-08T13:04:09.259Z,5.90
2017-09-08T13:06:36.734Z,4.90
2017-09-08T13:09:04.182Z,4.80
2017-09-08T13:11:32.601Z,4.90
2017-09-08T13:14:00.789Z,5.23
2017-09-08T13:16:28.225Z,5.00
2017-09-08T13:18:55.677Z,5.73
2017-09-08T13:21:23.129Z,4.90
2017-09-08T13:23:50.568Z,4.90
2017-09-08T13:26:18.012Z,6.43
2017-09-08T13:28:45.529Z,4.70
2017-09-08T13:31:13.049Z,5.60
2017-09-08T13:33:40.496Z,5.57
2017-09-08T13:36:07.952Z,5.77
2017-09-08T13:38:35.519Z,5.50
2017-09-08T13:41:03.056Z,5.63
2017-09-08T13:43:30.521Z,5.40
2017-09-08T13:45:57.947Z,5.90
2017-09-08T13:48:25.379Z,5.00
2017-09-08T13:50:53.577Z,6.17
2017-09-08T13:53:21.011Z,5.00
2017-09-08T13:55:49.177Z,5.47
2017-09-08T13:58:17.408Z,5.23
2017-09-08T14:00:44.832Z,6.17
2017-09-08T14:03:12.319Z,5.50
2017-09-08T14:05:39.773Z,5.60
2017-09-08T14:08:07.213Z,6.37
2017-09-08T14:10:34.691Z,5.40
2017-09-08T14:13:02.125Z,5.67
2017-09-08T14:15:29.552Z,5.47
2017-09-08T14:17:57.780Z,6.10
2017-09-08T14:20:25.248Z,5.90
2017-09-08T14:22:52.695Z,5.83
2017-09-08T14:25:20.125Z,6.10
2017-09-08T14:27:47.613Z,6.73
2017-09-08T14:30:15.044Z,6.13
2017-09-08T14:32:42.474Z,6.20
2017-09-08T14:35:09.905Z,5.17
2017-09-08T14:37:38.157Z,5.20
2017-09-08T14:40:05.588Z,6.63
2017-09-08T14:42:33.024Z,6.47
2017-09-08T14:45:00.540Z,6.50
2017-09-08T14:47:28.822Z,5.27
2017-09-08T14:49:57.017Z,5.10
2017-09-08T14:52:24.469Z,5.80
2017-09-08T14:54:51.914Z,6.03
2017-09-08T14:57:19.400Z,6.43
2017-09-08T14:59:46.874Z,5.20
2017-09-08T15:02:14.309Z,5.60
2017-09-08T15:04:41.774Z,5.53
2017-09-08T15:07:10.167Z,5.90
2017-09-08T15:09:38.377Z,5.90
2017-09-08T15:12:05.856Z,5.80
2017-09-08T15:14:33.332Z,5.90
2017-09-08T15:17:00.760Z,5.50
2017-09-08T15:19:28.224Z,5.00
2017-09-08T15:21:55.705Z,4.53
2017-09-08T15:24:23.147Z,4.63
2017-09-08T15:26:50.584Z,4.53
2017-09-08T15:29:18.048Z,4.00
2017-09-08T15:31:45.480Z,3.53
2017-09-08T15:34:12.964Z,3.97
2017-09-08T15:36:40.421Z,4.57
2017-09-08T15:39:07.875Z,3.67
2017-09-08T15:41:35.312Z,3.77
2017-09-08T15:44:02.766Z,4.30
2017-09-08T15:46:30.249Z,6.30
2017-09-08T15:48:58.536Z,4.10
2017-09-08T15:51:25.976Z,4.03
2017-09-08T15:53:53.388Z,4.20
2017-09-08T15:56:21.599Z,4.10
2017-09-08T15:58:49.042Z,4.37
2017-09-08T16:01:16.464Z,4.40
2017-09-08T16:03:43.904Z,4.33
2017-09-08T16:06:11.541Z,4.30
2017-09-08T16:08:38.989Z,4.50
2017-09-08T16:11:06.459Z,3.97
2017-09-08T16:13:33.919Z,4.20
2017-09-08T16:16:01.373Z,4.23
2017-09-08T16:18:28.829Z,4.50
2017-09-08T16:20:56.278Z,4.07
2017-09-08T16:23:23.723Z,4.37
2017-09-08T16:25:51.260Z,4.17
2017-09-08T16:28:18.740Z,4.00
2017-09-08T16:30:46.262Z,4.20
2017-09-08T16:33:13.665Z,3.77
2017-09-08T16:35:41.093Z,4.03
2017-09-08T16:38:08.524Z,4.00
2017-09-08T16:40:35.948Z,4.10
2017-09-08T16:43:03.465Z,4.10
2017-09-08T16:45:30.885Z,3.47
2017-09-08T16:47:58.324Z,3.93
2017-09-08T16:50:26.518Z,3.43
2017-09-08T16:52:56.702Z,3.80
2017-09-08T16:55:24.134Z,3.90
2017-09-08T16:57:51.572Z,3.67
2017-09-08T17:00:19.015Z,3.87
2017-09-08T17:02:46.448Z,3.83
2017-09-08T17:05:16.888Z,3.67
2017-09-08T17:07:44.312Z,3.20
2017-09-08T17:10:12.504Z,3.60
2017-09-08T17:12:41.806Z,2.97
2017-09-08T17:15:11.489Z,3.40
2017-09-08T17:17:40.437Z,3.17
2017-09-08T17:20:09.623Z,3.37
2017-09-08T17:22:37.044Z,3.20
2017-09-08T17:25:04.494Z,4.30
2017-09-08T17:27:31.924Z,3.63
2017-09-08T17:29:59.404Z,3.63
2017-09-08T17:32:26.873Z,3.80
2017-09-08T17:34:54.577Z,3.50
2017-09-08T17:37:22.084Z,3.80
2017-09-08T17:39:49.551Z,3.17
2017-09-08T17:42:17.000Z,3.43
2017-09-08T17:44:44.430Z,3.43
2017-09-08T17:47:11.880Z,4.80
2017-09-08T17:49:39.369Z,4.30
2017-09-08T17:52:06.797Z,3.20
2017-09-08T17:54:34.300Z,3.10
2017-09-08T17:57:01.761Z,3.60
2017-09-08T17:59:29.195Z,4.30
2017-09-08T18:01:56.672Z,5.40
2017-09-08T18:04:24.110Z,4.63
2017-09-08T18:06:51.567Z,3.50
2017-09-08T18:09:19.003Z,4.57
2017-09-08T18:11:46.429Z,3.57
2017-09-08T18:14:14.656Z,4.67
2017-09-08T18:16:42.092Z,4.27
2017-09-08T18:19:09.534Z,3.37
2017-09-08T18:21:37.022Z,4.40
2017-09-08T18:24:04.446Z,4.57
2017-09-08T18:26:31.868Z,4.13
2017-09-08T18:28:59.310Z,3.90
2017-09-08T18:31:26.740Z,4.43
2017-09-08T18:33:54.172Z,3.90
2017-09-08T18:36:21.601Z,4.37
2017-09-08T18:38:49.810Z,4.03
2017-09-08T18:41:17.233Z,4.20
2017-09-08T18:43:44.834Z,4.27
2017-09-08T18:46:12.261Z,4.53
2017-09-08T18:48:39.863Z,4.27
2017-09-08T18:51:07.330Z,4.23
2017-09-08T18:53:34.769Z,3.83
2017-09-08T18:56:02.220Z,3.90
2017-09-08T18:58:29.715Z,3.43
2017-09-08T19:00:57.131Z,3.80
2017-09-08T19:03:24.577Z,3.53
2017-09-08T19:05:52.009Z,3.30
2017-09-08T19:08:20.187Z,3.37
2017-09-08T19:10:47.608Z,4.77
2017-09-08T19:13:15.066Z,4.00
2017-09-08T19:15:42.488Z,4.60
2017-09-08T19:18:09.925Z,4.83
2017-09-08T19:20:37.396Z,3.80
2017-09-08T19:23:04.816Z,3.90
2017-09-08T19:25:32.246Z,4.10
2017-09-08T19:27:59.677Z,4.03
2017-09-08T19:30:27.125Z,3.90
2017-09-08T19:32:54.575Z,3.57
2017-09-08T19:35:21.975Z,4.20
2017-09-08T19:37:50.202Z,3.60
2017-09-08T19:40:17.666Z,3.87
2017-09-08T19:42:45.330Z,3.87
2017-09-08T19:45:12.753Z,3.23
2017-09-08T19:47:40.233Z,2.77
2017-09-08T19:50:07.711Z,3.47
2017-09-08T19:52:35.144Z,2.83
2017-09-08T19:55:02.577Z,3.40
2017-09-08T19:57:30.881Z,3.10
2017-09-08T19:59:58.344Z,3.30
2017-09-08T20:02:25.744Z,2.77
2017-09-08T20:04:54.067Z,3.23
2017-09-08T20:07:21.471Z,3.37
2017-09-08T20:09:49.655Z,4.00
2017-09-08T20:12:17.160Z,2.97
2017-09-08T20:14:44.581Z,3.00
2017-09-08T20:17:11.995Z,3.57
2017-09-08T20:19:39.448Z,3.40
2017-09-08T20:22:06.855Z,3.40
2017-09-08T20:24:34.329Z,4.53
2017-09-08T20:27:01.816Z,3.67
2017-09-08T20:29:29.279Z,3.27
2017-09-08T20:31:56.712Z,3.90
2017-09-08T20:34:24.161Z,4.17
2017-09-08T20:36:52.392Z,4.90
2017-09-08T20:39:19.806Z,4.40
2017-09-08T20:41:47.257Z,4.20
2017-09-08T20:44:16.672Z,4.03
2017-09-08T20:46:44.109Z,3.50
2017-09-08T20:49:12.420Z,3.90
2017-09-08T20:51:39.938Z,3.77
2017-09-08T20:54:07.375Z,3.50
2017-09-08T20:56:34.890Z,3.60
2017-09-08T20:59:02.321Z,3.30
2017-09-08T21:01:29.881Z,3.37
2017-09-08T21:03:57.343Z,3.43
2017-09-08T21:06:25.534Z,3.17
2017-09-08T21:08:53.725Z,2.90
2017-09-08T21:11:21.922Z,3.20
2017-09-08T21:13:49.371Z,2.58
2017-09-08T21:16:16.801Z,2.20
2017-09-08T21:18:44.240Z,2.57
2017-09-08T21:21:12.425Z,2.00
2017-09-08T21:23:40.621Z,2.20
2017-09-08T21:26:12.956Z,2.43
2017-09-08T21:28:40.397Z,2.80
2017-09-08T21:31:07.827Z,2.53
2017-09-08T21:33:35.265Z,2.90
2017-09-08T21:36:03.503Z,3.33
2017-09-08T21:38:31.776Z,2.90
2017-09-08T21:40:59.217Z,3.00
2017-09-08T21:43:26.651Z,2.60
2017-09-08T21:45:54.073Z,3.30
2017-09-08T21:48:21.514Z,3.33
2017-09-08T21:50:48.988Z,3.20
2017-09-08T21:53:17.193Z,3.83
2017-09-08T21:55:44.636Z,3.70
2017-09-08T21:58:12.050Z,4.10
2017-09-08T22:00:39.491Z,4.60
2017-09-08T22:03:06.995Z,4.43
2017-09-08T22:05:35.200Z,4.50
2017-09-08T22:08:02.621Z,5.00
2017-09-08T22:10:30.159Z,5.07
2017-09-08T22:12:57.610Z,5.10
2017-09-08T22:15:25.054Z,5.90
2017-09-08T22:17:52.501Z,6.13
2017-09-08T22:20:23.602Z,5.30
2017-09-08T22:22:52.052Z,5.37
2017-09-08T22:25:19.534Z,4.63
2017-09-08T22:27:46.974Z,5.43
2017-09-08T22:30:14.425Z,4.30
2017-09-08T22:32:41.877Z,5.37
2017-09-08T22:35:09.336Z,4.53
2017-09-08T22:37:36.773Z,5.00
2017-09-08T22:40:04.982Z,4.00
2017-09-08T22:42:32.409Z,4.60
2017-09-08T22:45:00.468Z,4.70
2017-09-08T22:47:27.938Z,3.80
2017-09-08T22:49:56.124Z,4.07
2017-09-08T22:52:23.571Z,4.00
2017-09-08T22:54:51.773Z,3.70
2017-09-08T22:57:19.198Z,4.13
2017-09-08T22:59:46.695Z,3.90
2017-09-08T23:02:14.121Z,4.30
2017-09-08T23:04:41.583Z,4.27
2017-09-08T23:07:09.028Z,3.37
2017-09-08T23:09:38.345Z,3.80
2017-09-08T23:12:05.822Z,3.80
2017-09-08T23:14:33.256Z,4.10
2017-09-08T23:17:00.730Z,4.60
2017-09-08T23:19:28.162Z,4.27
2017-09-08T23:21:55.715Z,4.27
2017-09-08T23:24:23.925Z,3.83
2017-09-08T23:26:51.386Z,4.40
2017-09-08T23:29:18.859Z,4.20
2017-09-08T23:31:46.314Z,4.50
2017-09-08T23:34:13.761Z,5.00
2017-09-08T23:36:41.181Z,4.40
2017-09-08T23:39:08.639Z,4.47
2017-09-08T23:41:36.810Z,4.23
2017-09-08T23:44:04.265Z,4.47
2017-09-08T23:46:32.897Z,4.10
2017-09-08T23:49:00.329Z,4.43
2017-09-08T23:51:27.789Z,4.63
2017-09-08T23:53:55.221Z,4.10
2017-09-08T23:56:23.445Z,4.43
2017-09-08T23:58:50.957Z,3.87
